Time;durP1;ratioP1;P1;durP2;ratioP2;P2;SDS_P1;SDS_P2;PMS_P1;PMS_P2;Temp;Humidity;BMP_temperature;BMP_pressure;BME280_temperature;BME280_humidity;BME280_pressure;Samples;Min_cycle;Max_cycle;Signal;HPM_P1;HPM_P2
2022/07/17 00:00:03;;;;;;;1.40;1.30;;;23.60;46.80;;;;;;5064487;28;20829;-63
2022/07/17 00:02:30;;;;;;;1.10;1.00;;;23.60;46.80;;;;;;5071361;28;20269;-60
2022/07/17 00:04:56;;;;;;;1.20;1.10;;;23.60;46.80;;;;;;5065413;28;20564;-62
2022/07/17 00:07:21;;;;;;;1.20;1.10;;;23.60;47.60;;;;;;5062448;28;20509;-69
2022/07/17 00:09:47;;;;;;;1.30;1.20;;;23.60;46.80;;;;;;5061939;28;20184;-62
2022/07/17 00:12:12;;;;;;;1.40;1.30;;;23.60;46.80;;;;;;5059293;28;20181;-64
2022/07/17 00:14:38;;;;;;;1.23;1.13;;;23.60;46.80;;;;;;5060866;28;20197;-58
2022/07/17 00:17:05;;;;;;;1.03;1.00;;;23.60;46.80;;;;;;5065792;28;20204;-57
2022/07/17 00:19:31;;;;;;;0.90;0.90;;;23.50;46.80;;;;;;5075230;28;20232;-57
2022/07/17 00:21:58;;;;;;;1.20;1.10;;;23.60;46.90;;;;;;5065621;28;20426;-62
2022/07/17 00:24:27;;;;;;;1.03;1.03;;;23.50;46.80;;;;;;5063633;28;20433;-59
2022/07/17 00:26:52;;;;;;;1.30;1.20;;;23.60;46.90;;;;;;5062205;28;20433;-56
2022/07/17 00:29:21;;;;;;;1.20;1.10;;;23.50;46.80;;;;;;5069393;28;20457;-60
2022/07/17 00:31:47;;;;;;;1.20;1.10;;;23.60;46.90;;;;;;5063125;28;20197;-63
2022/07/17 00:34:13;;;;;;;1.30;1.20;;;23.60;47.00;;;;;;5076843;28;20541;-62
2022/07/17 00:36:39;;;;;;;1.20;1.10;;;23.50;46.80;;;;;;5067244;28;20632;-59
2022/07/17 00:39:04;;;;;;;1.40;1.23;;;23.50;46.80;;;;;;5067526;28;20472;-62
2022/07/17 00:41:31;;;;;;;1.27;1.17;;;23.50;46.80;;;;;;5066036;28;21682;-59
2022/07/17 00:44:08;;;;;;;0.90;0.90;;;23.50;47.60;;;;;;5070361;28;20193;-61
2022/07/17 00:46:34;;;;;;;1.30;1.20;;;23.60;46.90;;;;;;5061673;28;20943;-60
2022/07/17 00:49:00;;;;;;;1.00;1.00;;;23.60;46.80;;;;;;5068182;28;20575;-56
2022/07/17 00:51:25;;;;;;;1.00;1.00;;;23.60;47.00;;;;;;5064305;28;20195;-70
2022/07/17 00:53:52;;;;;;;0.90;0.90;;;23.50;46.80;;;;;;5068727;28;20209;-62
2022/07/17 00:56:22;;;;;;;1.53;1.20;;;23.60;46.90;;;;;;5062837;28;20592;-60
2022/07/17 00:58:49;;;;;;;1.10;1.00;;;23.50;46.80;;;;;;5063336;28;20480;-60
2022/07/17 01:01:16;;;;;;;1.30;1.20;;;23.60;46.90;;;;;;5063992;28;20458;-69
2022/07/17 01:03:43;;;;;;;1.13;1.03;;;23.60;47.00;;;;;;5072386;28;20529;-56
2022/07/17 01:06:09;;;;;;;1.20;1.10;;;23.60;46.80;;;;;;5068987;28;20426;-58
2022/07/17 01:08:35;;;;;;;1.00;1.00;;;23.60;46.90;;;;;;5060253;28;20429;-60
2022/07/17 01:11:05;;;;;;;1.20;1.10;;;23.50;46.80;;;;;;5060111;28;20448;-65
2022/07/17 01:13:31;;;;;;;1.10;1.00;;;23.60;46.90;;;;;;5059415;28;20453;-57
2022/07/17 01:15:57;;;;;;;1.10;1.00;;;23.60;46.90;;;;;;5060356;28;20464;-57
2022/07/17 01:18:24;;;;;;;1.30;1.20;;;23.60;47.00;;;;;;5063747;28;20550;-60
2022/07/17 01:20:50;;;;;;;0.97;0.90;;;23.60;46.90;;;;;;5070597;28;20786;-57
2022/07/17 01:23:18;;;;;;;1.23;1.13;;;23.60;47.00;;;;;;5061817;28;20434;-57
2022/07/17 01:25:45;;;;;;;3.37;1.10;;;23.60;47.00;;;;;;5059576;28;20189;-61
2022/07/17 01:28:12;;;;;;;1.30;1.20;;;23.60;46.90;;;;;;5060167;28;20430;-65
2022/07/17 01:30:48;;;;;;;1.17;1.07;;;23.60;46.90;;;;;;5063889;28;20912;-68
2022/07/17 01:33:14;;;;;;;1.30;1.20;;;23.60;46.90;;;;;;5063243;28;20434;-59
2022/07/17 01:35:40;;;;;;;1.20;1.10;;;23.60;46.90;;;;;;5070763;28;20521;-67
2022/07/17 01:38:06;;;;;;;1.20;1.10;;;23.50;46.90;;;;;;5067370;28;20465;-66
2022/07/17 01:40:31;;;;;;;1.30;1.20;;;23.60;47.00;;;;;;5062915;28;20177;-59
2022/07/17 01:42:57;;;;;;;1.20;1.10;;;23.50;46.80;;;;;;5067892;28;20192;-65
2022/07/17 01:45:23;;;;;;;1.40;1.30;;;23.60;47.00;;;;;;5063078;28;20178;-56
2022/07/17 01:47:48;;;;;;;1.20;1.10;;;23.60;47.00;;;;;;5068481;28;20185;-58
2022/07/17 01:50:15;;;;;;;1.30;1.20;;;23.50;46.80;;;;;;5065602;28;20635;-59
2022/07/17 01:52:43;;;;;;;1.10;1.03;;;23.60;47.00;;;;;;5070139;28;20230;-68
2022/07/17 01:55:11;;;;;;;1.30;1.20;;;23.60;47.00;;;;;;5063804;28;20422;-59
2022/07/17 01:57:37;;;;;;;1.37;1.27;;;23.60;46.90;;;;;;5058509;28;20458;-68
2022/07/17 02:00:05;;;;;;;1.20;1.10;;;23.60;46.90;;;;;;5069709;28;20433;-56
2022/07/17 02:02:32;;;;;;;1.20;1.10;;;23.50;46.80;;;;;;5063083;28;20177;-57
2022/07/17 02:04:58;;;;;;;1.70;1.03;;;23.60;46.80;;;;;;5067330;28;20797;-64
2022/07/17 02:07:23;;;;;;;1.20;1.10;;;23.60;46.90;;;;;;5073742;28;20830;-60
2022/07/17 02:09:51;;;;;;;1.20;1.10;;;23.60;46.90;;;;;;5064707;28;20441;-58
2022/07/17 02:12:18;;;;;;;1.23;1.13;;;23.60;46.90;;;;;;5073330;28;20292;-63
2022/07/17 02:14:43;;;;;;;1.10;1.00;;;23.50;46.80;;;;;;5058891;28;20430;-65
2022/07/17 02:17:10;;;;;;;1.50;1.40;;;23.60;46.90;;;;;;5065542;28;20500;-59
2022/07/17 02:19:37;;;;;;;1.27;1.17;;;23.60;47.00;;;;;;5062459;28;20185;-57
2022/07/17 02:22:02;;;;;;;0.90;0.90;;;23.60;47.00;;;;;;5073060;28;20442;-57
2022/07/17 02:24:28;;;;;;;1.40;1.30;;;23.60;46.90;;;;;;5066059;28;20434;-68
2022/07/17 02:26:55;;;;;;;1.10;1.00;;;23.60;47.00;;;;;;5061128;28;21568;-58
2022/07/17 02:29:22;;;;;;;1.20;1.10;;;23.50;46.90;;;;;;5059213;28;20177;-65
2022/07/17 02:31:50;;;;;;;1.20;1.10;;;23.60;47.00;;;;;;5064394;28;21084;-57
2022/07/17 02:34:15;;;;;;;1.10;1.10;;;23.60;46.90;;;;;;5064056;28;20227;-59
2022/07/17 02:36:41;;;;;;;1.30;1.20;;;23.60;47.00;;;;;;5065870;28;20810;-58
2022/07/17 02:39:08;;;;;;;1.07;0.97;;;23.60;47.00;;;;;;5065680;28;20244;-61
2022/07/17 02:41:34;;;;;;;1.27;1.17;;;23.60;46.90;;;;;;5064634;28;20170;-56
2022/07/17 02:44:00;;;;;;;1.10;1.00;;;23.60;47.00;;;;;;5065549;28;20493;-59
2022/07/17 02:46:25;;;;;;;1.30;1.20;;;23.60;47.00;;;;;;5064007;28;20323;-56
2022/07/17 02:48:51;;;;;;;1.20;1.10;;;23.60;46.90;;;;;;5064139;28;20846;-59
2022/07/17 02:51:17;;;;;;;1.23;1.13;;;23.50;46.90;;;;;;5064511;28;20212;-62
2022/07/17 02:53:42;;;;;;;1.10;1.00;;;23.60;47.00;;;;;;5068588;28;20253;-57
2022/07/17 02:56:08;;;;;;;1.30;1.20;;;23.60;47.00;;;;;;5057809;28;20579;-70
2022/07/17 02:58:34;;;;;;;1.40;1.30;;;23.50;46.90;;;;;;5060034;28;20205;-56
2022/07/17 03:01:00;;;;;;;1.10;1.07;;;23.60;47.00;;;;;;5064823;28;20182;-57
2022/07/17 03:03:26;;;;;;;1.20;1.10;;;23.60;47.00;;;;;;5063935;28;20189;-58
2022/07/17 03:05:52;;;;;;;1.13;1.03;;;23.60;47.00;;;;;;5064242;28;21203;-63
2022/07/17 03:08:17;;;;;;;1.53;1.43;;;23.50;46.90;;;;;;5077186;28;20186;-60
2022/07/17 03:10:43;;;;;;;1.20;1.10;;;23.60;46.90;;;;;;5065486;28;20264;-70
2022/07/17 03:13:09;;;;;;;1.40;1.30;;;23.60;46.90;;;;;;5068528;28;20365;-57
2022/07/17 03:15:35;;;;;;;1.47;1.20;;;23.60;46.80;;;;;;5063456;28;20185;-59
2022/07/17 03:18:01;;;;;;;1.53;1.40;;;23.60;46.90;;;;;;5067850;28;20484;-60
2022/07/17 03:20:27;;;;;;;1.30;1.20;;;23.50;46.70;;;;;;5067042;28;20437;-60
2022/07/17 03:22:52;;;;;;;1.33;1.23;;;23.60;46.80;;;;;;5067406;28;20186;-57
2022/07/17 03:25:18;;;;;;;2.60;1.10;;;23.60;46.80;;;;;;5075981;28;20724;-57
2022/07/17 03:27:44;;;;;;;1.20;1.10;;;23.60;46.80;;;;;;5068764;28;20188;-57
2022/07/17 03:30:09;;;;;;;1.30;1.20;;;23.50;46.70;;;;;;5067331;28;20798;-69
2022/07/17 03:32:35;;;;;;;1.20;1.10;;;23.50;46.70;;;;;;5067104;28;20193;-58
2022/07/17 03:35:01;;;;;;;1.50;1.40;;;23.50;46.70;;;;;;5062803;28;20177;-58
2022/07/17 03:37:28;;;;;;;1.20;1.10;;;23.50;46.70;;;;;;5063267;28;20260;-68
2022/07/17 03:39:54;;;;;;;1.50;1.40;;;23.60;46.70;;;;;;5072443;28;20212;-65
2022/07/17 03:42:19;;;;;;;1.40;1.20;;;23.60;46.70;;;;;;5064852;28;20931;-67
2022/07/17 03:44:46;;;;;;;1.30;1.20;;;23.60;46.70;;;;;;5065990;28;20181;-63
2022/07/17 03:47:12;;;;;;;1.40;1.30;;;23.50;46.70;;;;;;5067118;28;20483;-64
2022/07/17 03:49:38;;;;;;;1.30;1.20;;;23.50;46.60;;;;;;5064762;28;21005;-59
2022/07/17 03:52:04;;;;;;;1.30;1.20;;;23.50;46.70;;;;;;5067082;28;20192;-62
2022/07/17 03:54:29;;;;;;;1.10;1.00;;;23.50;46.60;;;;;;5069976;28;20193;-57
2022/07/17 03:56:55;;;;;;;1.30;1.20;;;23.50;46.60;;;;;;5073795;28;20470;-58
2022/07/17 03:59:22;;;;;;;1.30;1.20;;;23.50;46.60;;;;;;5065280;28;20308;-56
2022/07/17 04:01:47;;;;;;;1.27;1.17;;;23.50;46.60;;;;;;5067268;28;20188;-65
2022/07/17 04:04:13;;;;;;;1.53;1.10;;;23.50;46.60;;;;;;5062348;28;20449;-62
2022/07/17 04:06:39;;;;;;;1.30;1.20;;;23.50;46.60;;;;;;5065938;28;20220;-59
2022/07/17 04:09:05;;;;;;;1.40;1.30;;;23.60;46.60;;;;;;5063256;28;20231;-60
2022/07/17 04:11:30;;;;;;;1.30;1.20;;;23.50;46.60;;;;;;5073049;28;20186;-56
2022/07/17 04:13:56;;;;;;;1.30;1.20;;;23.50;46.70;;;;;;5064808;28;20453;-57
2022/07/17 04:16:22;;;;;;;1.23;1.13;;;23.50;46.50;;;;;;5061455;28;20192;-58
2022/07/17 04:18:48;;;;;;;1.50;1.30;;;23.50;46.50;;;;;;5064158;28;21077;-59
2022/07/17 04:21:14;;;;;;;1.10;1.00;;;23.50;46.50;;;;;;5061943;28;20182;-59
2022/07/17 04:23:40;;;;;;;1.10;1.07;;;23.50;46.50;;;;;;5062309;28;21289;-60
2022/07/17 04:26:06;;;;;;;1.30;1.20;;;23.60;46.50;;;;;;5072084;28;20182;-60
2022/07/17 04:28:33;;;;;;;1.20;1.10;;;23.60;46.50;;;;;;5065801;28;20442;-68
2022/07/17 04:30:59;;;;;;;1.27;1.17;;;23.50;46.40;;;;;;5065641;28;20429;-57
2022/07/17 04:33:25;;;;;;;1.30;1.20;;;23.50;46.40;;;;;;5063954;28;20421;-65
2022/07/17 04:35:51;;;;;;;1.37;1.27;;;23.50;46.40;;;;;;5068728;28;20182;-57
2022/07/17 04:38:17;;;;;;;1.40;1.30;;;23.50;46.40;;;;;;5064603;28;21082;-65
2022/07/17 04:40:42;;;;;;;1.30;1.20;;;23.60;46.50;;;;;;5065259;28;20180;-57
2022/07/17 04:43:08;;;;;;;1.40;1.30;;;23.50;46.40;;;;;;5069992;28;20437;-56
2022/07/17 04:45:34;;;;;;;1.43;1.33;;;23.50;46.40;;;;;;5061674;28;20215;-64
2022/07/17 04:48:00;;;;;;;1.50;1.40;;;23.50;46.30;;;;;;5066515;28;20197;-70
2022/07/17 04:50:26;;;;;;;1.40;1.30;;;23.50;46.30;;;;;;5066128;28;20434;-63
2022/07/17 04:52:51;;;;;;;1.23;1.13;;;23.50;46.30;;;;;;5064091;28;20185;-57
2022/07/17 04:55:17;;;;;;;1.60;1.50;;;23.50;46.30;;;;;;5071452;28;20186;-64
2022/07/17 04:57:44;;;;;;;1.40;1.30;;;23.50;46.30;;;;;;5063505;28;20201;-61
2022/07/17 05:00:11;;;;;;;1.10;1.00;;;23.50;46.30;;;;;;5061697;28;20185;-61
2022/07/17 05:02:38;;;;;;;1.40;1.30;;;23.50;46.30;;;;;;5061520;28;20441;-67
2022/07/17 05:05:04;;;;;;;1.20;1.10;;;23.50;46.20;;;;;;5060930;28;20447;-63
2022/07/17 05:07:30;;;;;;;1.20;1.10;;;23.50;46.20;;;;;;5064482;28;20430;-56
2022/07/17 05:09:56;;;;;;;1.10;1.00;;;23.50;46.20;;;;;;5066067;28;20522;-60
2022/07/17 05:12:22;;;;;;;1.20;1.10;;;23.50;46.20;;;;;;5073339;28;23192;-59
2022/07/17 05:14:47;;;;;;;1.87;1.30;;;23.50;46.20;;;;;;5061998;28;20963;-57
2022/07/17 05:17:13;;;;;;;1.37;1.27;;;23.50;46.10;;;;;;5061634;28;20636;-68
2022/07/17 05:19:39;;;;;;;1.20;1.10;;;23.50;46.20;;;;;;5064647;28;20291;-59
2022/07/17 05:22:04;;;;;;;1.27;1.17;;;23.50;46.20;;;;;;5060815;28;20184;-58
2022/07/17 05:24:30;;;;;;;1.40;1.30;;;23.50;46.20;;;;;;5062121;28;20197;-57
2022/07/17 05:26:56;;;;;;;1.30;1.20;;;23.60;46.30;;;;;;5074298;28;20178;-57
2022/07/17 05:29:22;;;;;;;1.20;1.10;;;23.50;46.20;;;;;;5069761;28;20189;-67
2022/07/17 05:31:49;;;;;;;1.27;1.17;;;23.50;46.20;;;;;;5063977;28;20456;-70
2022/07/17 05:34:14;;;;;;;1.17;1.07;;;23.50;46.20;;;;;;5065689;28;20174;-60
2022/07/17 05:36:40;;;;;;;1.40;1.30;;;23.50;46.10;;;;;;5063084;28;20970;-62
2022/07/17 05:39:06;;;;;;;1.20;1.10;;;23.50;46.10;;;;;;5060324;28;20226;-62
2022/07/17 05:41:32;;;;;;;1.50;1.40;;;23.60;46.20;;;;;;5070015;28;20200;-57
2022/07/17 05:43:57;;;;;;;1.20;1.10;;;23.60;46.20;;;;;;5069715;28;20185;-70
2022/07/17 05:46:23;;;;;;;1.30;1.20;;;23.50;46.30;;;;;;5062111;28;20213;-59
2022/07/17 05:48:49;;;;;;;1.33;1.23;;;23.50;46.10;;;;;;5059148;28;20266;-57
2022/07/17 05:51:14;;;;;;;1.30;1.20;;;23.50;46.10;;;;;;5060686;28;20197;-64
2022/07/17 05:53:40;;;;;;;1.37;1.27;;;23.50;46.10;;;;;;5062746;28;20185;-60
2022/07/17 05:56:06;;;;;;;1.17;1.07;;;23.50;46.20;;;;;;5062391;28;20184;-70
2022/07/17 05:58:31;;;;;;;1.33;1.23;;;23.50;46.10;;;;;;5077340;28;20724;-67
2022/07/17 06:00:57;;;;;;;1.50;1.40;;;23.50;46.10;;;;;;5067910;28;20186;-58
2022/07/17 06:03:22;;;;;;;1.20;1.10;;;23.50;46.10;;;;;;5065770;28;20189;-56
2022/07/17 06:05:48;;;;;;;1.00;1.00;;;23.50;46.10;;;;;;5068213;28;20651;-60
2022/07/17 06:08:14;;;;;;;1.37;1.27;;;23.50;46.10;;;;;;5063867;28;20253;-67
2022/07/17 06:10:39;;;;;;;1.20;1.10;;;23.60;46.10;;;;;;5065093;28;20842;-62
2022/07/17 06:13:05;;;;;;;1.10;1.00;;;23.50;46.00;;;;;;5071478;28;21373;-65
2022/07/17 06:15:31;;;;;;;1.30;1.20;;;23.50;46.10;;;;;;5062341;28;20188;-60
2022/07/17 06:18:02;;;;;;;1.40;1.30;;;23.60;46.10;;;;;;5060035;28;20244;-65
2022/07/17 06:20:28;;;;;;;1.10;1.00;;;23.50;46.00;;;;;;5063084;28;20807;-59
2022/07/17 06:22:54;;;;;;;1.10;1.10;;;23.50;46.10;;;;;;5060481;28;20433;-60
2022/07/17 06:25:19;;;;;;;1.27;1.17;;;23.50;46.00;;;;;;5059704;28;20437;-63
2022/07/17 06:27:45;;;;;;;1.40;1.30;;;23.50;46.00;;;;;;5066267;28;20193;-63
2022/07/17 06:30:13;;;;;;;1.30;1.20;;;23.60;46.10;;;;;;5066984;28;20708;-69
2022/07/17 06:32:40;;;;;;;1.47;1.37;;;23.60;46.10;;;;;;5059948;28;20169;-60
2022/07/17 06:35:07;;;;;;;1.27;1.17;;;23.50;46.00;;;;;;5066569;28;20441;-62
2022/07/17 06:37:33;;;;;;;1.43;1.10;;;23.50;46.00;;;;;;5062357;28;20429;-60
2022/07/17 06:39:59;;;;;;;1.20;1.10;;;23.50;46.00;;;;;;5061888;28;20425;-59
2022/07/17 06:42:26;;;;;;;1.27;1.17;;;23.50;46.00;;;;;;5064137;28;20342;-59
2022/07/17 06:44:51;;;;;;;1.30;1.20;;;23.50;46.10;;;;;;5077306;28;20181;-65
2022/07/17 06:47:17;;;;;;;1.13;1.03;;;23.50;46.00;;;;;;5067692;28;21053;-58
2022/07/17 06:49:43;;;;;;;1.27;1.17;;;23.50;46.10;;;;;;5063771;28;20201;-59
2022/07/17 06:52:09;;;;;;;1.30;1.20;;;23.50;46.00;;;;;;5065329;28;20921;-63
2022/07/17 06:54:35;;;;;;;1.17;1.07;;;23.50;45.90;;;;;;5065840;28;20450;-60
2022/07/17 06:57:01;;;;;;;1.20;1.10;;;23.50;45.90;;;;;;5069350;28;20181;-57
2022/07/17 06:59:27;;;;;;;1.30;1.20;;;23.50;45.90;;;;;;5077217;28;20560;-58
2022/07/17 07:01:53;;;;;;;1.30;1.20;;;23.50;45.90;;;;;;5065877;28;20552;-57
2022/07/17 07:04:19;;;;;;;1.20;1.10;;;23.60;46.10;;;;;;5064423;28;20427;-69
2022/07/17 07:06:45;;;;;;;1.20;1.10;;;23.50;45.90;;;;;;5067957;28;20178;-60
2022/07/17 07:09:11;;;;;;;1.17;1.07;;;23.50;45.90;;;;;;5070529;28;20525;-63
2022/07/17 07:11:37;;;;;;;1.33;1.23;;;23.50;45.90;;;;;;5068985;28;20222;-57
2022/07/17 07:14:03;;;;;;;1.20;1.10;;;23.60;46.10;;;;;;5072080;28;20178;-58
2022/07/17 07:16:29;;;;;;;1.30;1.20;;;23.50;45.90;;;;;;5072364;28;20452;-56
2022/07/17 07:18:54;;;;;;;1.20;1.10;;;23.50;45.90;;;;;;5067253;28;20239;-58
2022/07/17 07:21:20;;;;;;;1.37;1.23;;;23.50;45.90;;;;;;5067708;28;21842;-57
2022/07/17 07:23:45;;;;;;;1.40;1.30;;;23.50;46.70;;;;;;5064794;28;20272;-68
2022/07/17 07:26:11;;;;;;;1.60;1.23;;;23.60;46.00;;;;;;5072185;28;20703;-69
2022/07/17 07:28:37;;;;;;;1.13;1.03;;;23.50;45.90;;;;;;5063905;28;20688;-59
2022/07/17 07:31:03;;;;;;;1.33;1.23;;;23.50;45.80;;;;;;5072984;28;20341;-59
2022/07/17 07:33:29;;;;;;;1.10;1.00;;;23.60;46.00;;;;;;5065706;28;20509;-70
2022/07/17 07:35:55;;;;;;;1.20;1.10;;;23.60;46.00;;;;;;5062514;28;20181;-59
2022/07/17 07:38:21;;;;;;;1.20;1.10;;;23.50;45.80;;;;;;5066080;28;20213;-71
2022/07/17 07:40:46;;;;;;;1.30;1.20;;;23.60;45.80;;;;;;5063367;28;20178;-58
2022/07/17 07:43:12;;;;;;;1.20;1.10;;;23.60;45.90;;;;;;5061830;28;20432;-63
2022/07/17 07:45:38;;;;;;;1.53;1.10;;;23.60;45.90;;;;;;5070278;28;20189;-57
2022/07/17 07:48:04;;;;;;;1.20;1.10;;;23.60;46.60;;;;;;5067354;28;20183;-62
2022/07/17 07:50:29;;;;;;;1.20;1.10;;;23.60;45.90;;;;;;5063908;28;20301;-59
2022/07/17 07:52:55;;;;;;;1.30;1.20;;;23.60;45.90;;;;;;5063161;28;20430;-57
2022/07/17 07:55:23;;;;;;;1.30;1.20;;;23.60;46.00;;;;;;5067777;28;20555;-60
2022/07/17 07:57:49;;;;;;;1.17;1.07;;;23.60;46.00;;;;;;5062386;28;20220;-59
2022/07/17 08:00:15;;;;;;;0.93;0.93;;;23.60;46.00;;;;;;5074625;28;20463;-59
2022/07/17 08:02:41;;;;;;;1.00;1.00;;;23.60;45.90;;;;;;5072384;28;20434;-59
2022/07/17 08:05:07;;;;;;;1.00;1.00;;;23.60;46.00;;;;;;5062150;28;20444;-67
2022/07/17 08:07:36;;;;;;;1.20;1.10;;;23.60;46.00;;;;;;5061449;28;20846;-69
2022/07/17 08:10:03;;;;;;;1.27;1.17;;;23.50;45.90;;;;;;5064724;28;22467;-69
2022/07/17 08:12:28;;;;;;;1.20;1.10;;;23.60;46.00;;;;;;5064142;28;21011;-68
2022/07/17 08:14:54;;;;;;;1.40;1.30;;;23.60;46.00;;;;;;5065178;28;20435;-56
2022/07/17 08:17:20;;;;;;;1.40;1.30;;;23.60;46.00;;;;;;5076121;28;20191;-60
2022/07/17 08:19:46;;;;;;;1.30;1.20;;;23.60;46.00;;;;;;5068418;28;20239;-66
2022/07/17 08:22:12;;;;;;;1.30;1.20;;;23.60;46.00;;;;;;5067274;28;20287;-62
2022/07/17 08:24:38;;;;;;;1.40;1.30;;;23.60;46.00;;;;;;5060884;28;20173;-58
2022/07/17 08:27:04;;;;;;;1.20;1.10;;;23.60;46.00;;;;;;5061013;28;21147;-60
2022/07/17 08:29:30;;;;;;;1.20;1.10;;;23.60;46.00;;;;;;5068017;28;20360;-56
2022/07/17 08:31:56;;;;;;;1.50;1.37;;;23.60;46.00;;;;;;5073367;28;20433;-56
2022/07/17 08:34:22;;;;;;;1.20;1.10;;;23.60;46.00;;;;;;5063224;28;20428;-65
2022/07/17 08:36:49;;;;;;;1.40;1.30;;;23.60;46.00;;;;;;5063735;28;20788;-68
2022/07/17 08:39:15;;;;;;;1.33;1.23;;;23.60;46.10;;;;;;5063427;28;20471;-70
2022/07/17 08:41:41;;;;;;;1.30;1.20;;;23.60;46.10;;;;;;5060771;28;20445;-59
2022/07/17 08:44:08;;;;;;;1.20;1.10;;;23.60;46.10;;;;;;5063254;28;20422;-70
2022/07/17 08:46:38;;;;;;;1.50;1.40;;;23.60;46.10;;;;;;5062251;28;20787;-65
2022/07/17 08:49:05;;;;;;;1.17;1.07;;;23.60;46.80;;;;;;5078516;28;20439;-69
2022/07/17 08:51:32;;;;;;;1.10;1.00;;;23.60;46.10;;;;;;5049054;28;20974;-65
2022/07/17 08:53:58;;;;;;;1.60;1.50;;;23.60;46.10;;;;;;5064241;28;20793;-64
2022/07/17 08:56:26;;;;;;;1.20;1.10;;;23.60;46.20;;;;;;5059925;28;20468;-62
2022/07/17 08:58:52;;;;;;;1.23;1.13;;;23.60;46.20;;;;;;5060372;28;20633;-56
2022/07/17 09:01:19;;;;;;;1.30;1.20;;;23.60;46.20;;;;;;5060774;28;20537;-68
2022/07/17 09:03:57;;;;;;;1.23;1.13;;;23.60;46.20;;;;;;5071193;28;20510;-57
2022/07/17 09:06:23;;;;;;;1.30;1.20;;;23.60;46.20;;;;;;5060938;28;20445;-60
2022/07/17 09:09:00;;;;;;;1.40;1.30;;;23.60;46.30;;;;;;5064447;28;20866;-57
2022/07/17 09:11:29;;;;;;;1.13;1.03;;;23.60;46.30;;;;;;5062371;28;20474;-69
2022/07/17 09:13:55;;;;;;;1.30;1.20;;;23.60;46.30;;;;;;5068573;28;20464;-59
2022/07/17 09:16:21;;;;;;;1.30;1.20;;;23.60;46.30;;;;;;5065194;28;20460;-64
2022/07/17 09:18:49;;;;;;;1.10;1.00;;;23.60;46.30;;;;;;5071548;28;20953;-68
2022/07/17 09:21:22;;;;;;;1.37;1.27;;;23.60;46.30;;;;;;5066659;28;20425;-68
2022/07/17 09:24:01;;;;;;;1.03;1.00;;;23.60;46.20;;;;;;5073065;28;20438;-57
2022/07/17 09:26:28;;;;;;;1.50;1.40;;;23.60;46.30;;;;;;5062930;28;20509;-67
2022/07/17 09:28:55;;;;;;;1.20;1.10;;;23.60;46.30;;;;;;5061046;28;20919;-58
2022/07/17 09:31:31;;;;;;;1.30;1.20;;;23.60;46.30;;;;;;5067006;28;20442;-65
2022/07/17 09:33:58;;;;;;;1.53;1.43;;;23.60;46.30;;;;;;5067650;28;20530;-60
2022/07/17 09:36:24;;;;;;;1.40;1.30;;;23.60;46.30;;;;;;5065905;28;20466;-68
2022/07/17 09:38:56;;;;;;;1.40;1.30;;;23.60;46.40;;;;;;5066383;28;20492;-57
2022/07/17 09:41:23;;;;;;;1.60;1.50;;;23.60;46.40;;;;;;5069437;28;20445;-63
2022/07/17 09:43:57;;;;;;;1.60;1.20;;;23.60;46.40;;;;;;5060980;28;20433;-60
2022/07/17 09:46:30;;;;;;;1.40;1.30;;;23.60;46.40;;;;;;5064095;28;20469;-65
2022/07/17 09:49:04;;;;;;;1.43;1.33;;;23.60;46.40;;;;;;5062494;28;20936;-59
2022/07/17 09:51:32;;;;;;;1.40;1.30;;;23.60;46.40;;;;;;5069024;28;20434;-59
2022/07/17 09:54:03;;;;;;;1.63;1.53;;;23.60;46.50;;;;;;5060130;28;20945;-58
2022/07/17 09:56:32;;;;;;;1.40;1.30;;;23.60;46.40;;;;;;5070879;28;20583;-56
2022/07/17 09:59:04;;;;;;;1.40;1.30;;;23.60;46.40;;;;;;5063877;28;22448;-69
2022/07/17 10:01:31;;;;;;;1.40;1.30;;;23.60;46.50;;;;;;5059162;28;21001;-63
2022/07/17 10:03:57;;;;;;;1.30;1.20;;;23.60;46.50;;;;;;5058269;28;20798;-62
2022/07/17 10:06:24;;;;;;;1.50;1.40;;;23.60;46.50;;;;;;5071993;28;20533;-64
2022/07/17 10:08:51;;;;;;;1.37;1.27;;;23.60;46.50;;;;;;5063172;28;20982;-56
2022/07/17 10:11:20;;;;;;;1.40;1.30;;;23.60;46.50;;;;;;5062059;28;20575;-59
2022/07/17 10:13:47;;;;;;;1.50;1.40;;;23.60;46.50;;;;;;5062999;28;21971;-70
2022/07/17 10:16:13;;;;;;;1.30;1.20;;;23.60;46.50;;;;;;5063312;28;20444;-69
2022/07/17 10:18:41;;;;;;;1.60;1.50;;;23.60;46.50;;;;;;5056929;28;20490;-63
2022/07/17 10:21:16;;;;;;;1.20;1.10;;;23.60;46.50;;;;;;5068752;28;20447;-59
2022/07/17 10:23:43;;;;;;;1.40;1.30;;;23.60;46.50;;;;;;5065318;28;20801;-69
2022/07/17 10:26:10;;;;;;;1.40;1.30;;;23.60;46.50;;;;;;5063148;28;20505;-57
2022/07/17 10:28:46;;;;;;;1.50;1.40;;;23.60;46.50;;;;;;5059248;28;20429;-57
2022/07/17 10:31:26;;;;;;;1.33;1.23;;;23.60;46.50;;;;;;5059795;28;20530;-62
2022/07/17 10:33:59;;;;;;;1.60;1.50;;;23.60;46.50;;;;;;5057564;28;20441;-66
2022/07/17 10:36:39;;;;;;;1.50;1.40;;;23.60;46.60;;;;;;5067185;28;20438;-69
2022/07/17 10:39:16;;;;;;;1.40;1.30;;;23.60;46.60;;;;;;5063313;28;20461;-62
2022/07/17 10:41:43;;;;;;;1.40;1.30;;;23.60;46.60;;;;;;5061589;28;20456;-62
2022/07/17 10:44:09;;;;;;;1.37;1.27;;;23.60;46.60;;;;;;5060578;28;20476;-69
2022/07/17 10:46:35;;;;;;;1.53;1.43;;;23.60;46.60;;;;;;5059778;28;21116;-67
2022/07/17 10:49:04;;;;;;;1.40;1.30;;;23.60;46.60;;;;;;5060742;28;20193;-70
2022/07/17 10:51:31;;;;;;;1.63;1.30;;;23.60;46.60;;;;;;5069146;28;20187;-69
2022/07/17 10:54:01;;;;;;;1.40;1.30;;;23.60;46.60;;;;;;5064131;28;21481;-61
2022/07/17 10:56:27;;;;;;;1.47;1.37;;;23.60;46.70;;;;;;5061409;28;20414;-66
2022/07/17 10:59:00;;;;;;;1.87;1.53;;;23.60;46.60;;;;;;5061553;28;20963;-66
2022/07/17 11:01:26;;;;;;;1.30;1.20;;;23.60;46.60;;;;;;5058678;28;20450;-71
2022/07/17 11:03:56;;;;;;;1.80;1.30;;;23.60;46.70;;;;;;5060342;28;20446;-68
2022/07/17 11:06:37;;;;;;;1.50;1.40;;;23.60;46.60;;;;;;5073002;28;20181;-60
2022/07/17 11:09:05;;;;;;;1.50;1.40;;;23.60;46.70;;;;;;5059796;28;20444;-66
2022/07/17 11:11:51;;;;;;;1.37;1.27;;;23.60;46.70;;;;;;5058409;28;20429;-70
2022/07/17 11:14:21;;;;;;;1.37;1.27;;;23.60;46.70;;;;;;5062418;28;20429;-60
2022/07/17 11:17:00;;;;;;;1.27;1.17;;;23.60;46.70;;;;;;5058529;28;20434;-68
2022/07/17 11:19:42;;;;;;;1.60;1.50;;;23.60;46.70;;;;;;5061659;28;20614;-57
2022/07/17 11:22:11;;;;;;;1.50;1.40;;;23.60;46.70;;;;;;5071417;28;21185;-59
2022/07/17 11:24:37;;;;;;;1.60;1.50;;;23.60;46.70;;;;;;5067675;28;20509;-60
2022/07/17 11:27:03;;;;;;;1.40;1.30;;;23.60;46.70;;;;;;5063739;28;20422;-61
2022/07/17 11:29:29;;;;;;;1.20;1.10;;;23.60;46.70;;;;;;5064216;28;21004;-67
2022/07/17 11:31:56;;;;;;;1.30;1.20;;;23.60;46.70;;;;;;5065203;28;20452;-61
2022/07/17 11:34:25;;;;;;;1.00;1.00;;;23.60;46.70;;;;;;5064737;28;21217;-63
2022/07/17 11:36:51;;;;;;;1.30;1.20;;;23.60;46.80;;;;;;5075077;28;20425;-69
2022/07/17 11:39:18;;;;;;;1.30;1.20;;;23.60;46.80;;;;;;5063530;28;20562;-62
2022/07/17 11:41:52;;;;;;;1.50;1.40;;;23.60;46.80;;;;;;5063116;28;20174;-61
2022/07/17 11:44:20;;;;;;;1.40;1.30;;;23.60;46.70;;;;;;5061553;28;20445;-57
2022/07/17 11:46:48;;;;;;;1.60;1.30;;;23.60;46.80;;;;;;5064714;28;20419;-69
2022/07/17 11:49:32;;;;;;;1.60;1.50;;;23.60;46.80;;;;;;5067394;28;21405;-59
2022/07/17 11:52:06;;;;;;;1.50;1.40;;;23.60;46.70;;;;;;5070282;28;20508;-57
2022/07/17 11:54:32;;;;;;;1.60;1.50;;;23.60;46.80;;;;;;5063093;28;20440;-57
2022/07/17 11:56:58;;;;;;;1.40;1.30;;;23.60;46.80;;;;;;5063775;28;20434;-58
2022/07/17 11:59:27;;;;;;;1.30;1.20;;;23.60;46.80;;;;;;5067331;28;20204;-62
2022/07/17 12:01:53;;;;;;;1.40;1.30;;;23.60;47.00;;;;;;5064434;28;20426;-58
2022/07/17 12:04:20;;;;;;;1.77;1.20;;;23.60;46.80;;;;;;5062209;28;20447;-66
2022/07/17 12:06:57;;;;;;;1.50;1.40;;;23.60;46.80;;;;;;5065202;28;20437;-62
2022/07/17 12:09:27;;;;;;;1.20;1.10;;;23.60;46.80;;;;;;5072030;28;20795;-65
2022/07/17 12:11:52;;;;;;;1.50;1.33;;;23.60;46.90;;;;;;5064490;28;20445;-63
2022/07/17 12:14:18;;;;;;;1.50;1.40;;;23.60;46.80;;;;;;5072549;28;20756;-62
2022/07/17 12:16:44;;;;;;;1.30;1.20;;;23.60;46.80;;;;;;5064743;28;20574;-68
2022/07/17 12:19:19;;;;;;;1.43;1.33;;;23.60;46.80;;;;;;5063395;28;21113;-68
2022/07/17 12:22:04;;;;;;;1.30;1.20;;;23.60;46.80;;;;;;5068123;28;20180;-64
2022/07/17 12:24:32;;;;;;;1.50;1.40;;;23.60;46.80;;;;;;5074930;28;20425;-69
2022/07/17 12:27:00;;;;;;;1.40;1.30;;;23.60;46.80;;;;;;5062593;28;20457;-62
2022/07/17 12:29:26;;;;;;;1.50;1.40;;;23.60;46.80;;;;;;5063131;28;20679;-70
2022/07/17 12:32:08;;;;;;;1.73;1.63;;;23.60;46.80;;;;;;5061301;28;21369;-65
2022/07/17 12:34:36;;;;;;;1.40;1.30;;;23.60;46.80;;;;;;5065224;28;20442;-56
2022/07/17 12:37:03;;;;;;;1.60;1.50;;;23.60;46.80;;;;;;5062738;28;20453;-56
2022/07/17 12:39:29;;;;;;;1.50;1.40;;;23.60;46.80;;;;;;5074597;28;20485;-63
2022/07/17 12:41:54;;;;;;;1.53;1.43;;;23.60;46.80;;;;;;5066376;28;20465;-58
2022/07/17 12:44:20;;;;;;;1.40;1.30;;;23.60;46.90;;;;;;5065667;28;23098;-57
2022/07/17 12:46:46;;;;;;;1.40;1.30;;;23.60;46.80;;;;;;5069801;28;20173;-57